sensor_id;sensor_type;location;lat;lon;timestamp;pressure;altitude;pressure_sealevel;temperature;humidity
6198;BME280;3132;42.622;23.328;2023-08-24T00:01:06;93011.38;;;22.34;68.36
6198;BME280;3132;42.622;23.328;2023-08-24T00:03:32;93030.16;;;22.53;67.67
6198;BME280;3132;42.622;23.328;2023-08-24T00:05:58;93034.56;;;22.61;67.52
6198;BME280;3132;42.622;23.328;2023-08-24T00:08:23;93036.78;;;22.59;67.79
6198;BME280;3132;42.622;23.328;2023-08-24T00:10:49;93043.41;;;22.65;67.60
6198;BME280;3132;42.622;23.328;2023-08-24T00:13:15;93038.66;;;22.59;68.10
6198;BME280;3132;42.622;23.328;2023-08-24T00:15:41;93035.34;;;22.50;68.24
6198;BME280;3132;42.622;23.328;2023-08-24T00:18:07;93022.53;;;22.24;68.87
6198;BME280;3132;42.622;23.328;2023-08-24T00:20:33;93040.88;;;22.29;69.05
6198;BME280;3132;42.622;23.328;2023-08-24T00:22:59;93029.31;;;22.37;68.49
6198;BME280;3132;42.622;23.328;2023-08-24T00:25:24;93024.16;;;22.29;69.32
6198;BME280;3132;42.622;23.328;2023-08-24T00:27:53;93021.25;;;22.34;68.77
6198;BME280;3132;42.622;23.328;2023-08-24T00:30:19;93014.28;;;22.29;68.81
6198;BME280;3132;42.622;23.328;2023-08-24T00:32:44;93020.88;;;22.19;69.29
6198;BME280;3132;42.622;23.328;2023-08-24T00:35:10;93019.44;;;22.22;68.80
6198;BME280;3132;42.622;23.328;2023-08-24T00:37:36;93016.31;;;22.20;68.25
6198;BME280;3132;42.622;23.328;2023-08-24T00:40:03;93017.13;;;22.20;68.42
6198;BME280;3132;42.622;23.328;2023-08-24T00:42:30;93017.69;;;22.14;68.50
6198;BME280;3132;42.622;23.328;2023-08-24T00:44:57;93015.66;;;22.23;68.48
6198;BME280;3132;42.622;23.328;2023-08-24T00:47:23;93023.34;;;22.12;68.76
6198;BME280;3132;42.622;23.328;2023-08-24T00:49:50;93020.16;;;22.07;69.00
6198;BME280;3132;42.622;23.328;2023-08-24T00:52:16;93027.25;;;22.03;68.88
6198;BME280;3132;42.622;23.328;2023-08-24T00:54:42;93031.06;;;21.90;69.18
6198;BME280;3132;42.622;23.328;2023-08-24T00:57:08;93034.13;;;22.04;68.91
6198;BME280;3132;42.622;23.328;2023-08-24T00:59:34;93030.38;;;22.05;68.45
6198;BME280;3132;42.622;23.328;2023-08-24T01:01:59;93032.81;;;21.98;68.28
6198;BME280;3132;42.622;23.328;2023-08-24T01:04:25;93028.63;;;21.97;68.74
6198;BME280;3132;42.622;23.328;2023-08-24T01:06:51;93011.13;;;21.96;68.35
6198;BME280;3132;42.622;23.328;2023-08-24T01:09:18;93025.03;;;22.05;68.50
6198;BME280;3132;42.622;23.328;2023-08-24T01:14:50;93020.34;;;22.14;68.66
6198;BME280;3132;42.622;23.328;2023-08-24T01:17:23;93020.63;;;21.97;69.61
6198;BME280;3132;42.622;23.328;2023-08-24T01:19:50;93013.44;;;21.97;69.27
6198;BME280;3132;42.622;23.328;2023-08-24T01:22:32;93017.97;;;21.97;68.97
6198;BME280;3132;42.622;23.328;2023-08-24T01:28:01;93020.88;;;21.92;69.91
6198;BME280;3132;42.622;23.328;2023-08-24T01:30:28;93021.38;;;21.82;69.27
6198;BME280;3132;42.622;23.328;2023-08-24T01:32:56;93022.03;;;21.79;70.22
6198;BME280;3132;42.622;23.328;2023-08-24T01:35:21;93025.13;;;21.69;70.68
6198;BME280;3132;42.622;23.328;2023-08-24T01:37:46;93017.38;;;21.64;70.93
6198;BME280;3132;42.622;23.328;2023-08-24T01:40:20;93006.22;;;21.58;70.66
6198;BME280;3132;42.622;23.328;2023-08-24T01:42:55;93001.03;;;21.50;71.20
6198;BME280;3132;42.622;23.328;2023-08-24T01:45:22;93012.22;;;21.55;71.24
6198;BME280;3132;42.622;23.328;2023-08-24T01:47:50;93016.97;;;21.50;72.03
6198;BME280;3132;42.622;23.328;2023-08-24T01:50:17;93019.66;;;21.38;72.93
6198;BME280;3132;42.622;23.328;2023-08-24T01:52:43;93012.78;;;21.49;71.65
6198;BME280;3132;42.622;23.328;2023-08-24T01:55:09;93012.13;;;21.40;72.47
6198;BME280;3132;42.622;23.328;2023-08-24T01:57:35;93018.13;;;21.37;74.04
6198;BME280;3132;42.622;23.328;2023-08-24T02:00:00;93013.44;;;21.46;73.40
6198;BME280;3132;42.622;23.328;2023-08-24T02:02:26;93015.47;;;21.37;73.29
6198;BME280;3132;42.622;23.328;2023-08-24T02:04:51;93007.94;;;21.27;73.69
6198;BME280;3132;42.622;23.328;2023-08-24T02:07:17;93004.84;;;21.37;73.78
6198;BME280;3132;42.622;23.328;2023-08-24T02:09:42;93014.56;;;21.33;74.46
6198;BME280;3132;42.622;23.328;2023-08-24T02:12:07;93001.72;;;21.35;73.33
6198;BME280;3132;42.622;23.328;2023-08-24T02:14:33;93007.25;;;21.42;73.68
6198;BME280;3132;42.622;23.328;2023-08-24T02:16:58;93012.34;;;21.35;74.35
6198;BME280;3132;42.622;23.328;2023-08-24T02:19:24;93029.06;;;21.35;74.98
6198;BME280;3132;42.622;23.328;2023-08-24T02:21:49;93026.09;;;21.37;74.21
6198;BME280;3132;42.622;23.328;2023-08-24T02:24:14;93026.75;;;21.22;73.10
6198;BME280;3132;42.622;23.328;2023-08-24T02:26:40;93034.03;;;21.25;73.28
6198;BME280;3132;42.622;23.328;2023-08-24T02:29:05;93034.47;;;21.39;74.08
6198;BME280;3132;42.622;23.328;2023-08-24T02:31:31;93036.59;;;21.33;73.66
6198;BME280;3132;42.622;23.328;2023-08-24T02:33:56;93036.03;;;21.28;73.62
6198;BME280;3132;42.622;23.328;2023-08-24T02:36:22;93037.16;;;21.27;75.02
6198;BME280;3132;42.622;23.328;2023-08-24T02:38:47;93036.03;;;21.28;75.10
6198;BME280;3132;42.622;23.328;2023-08-24T02:41:13;93033.50;;;21.19;74.90
6198;BME280;3132;42.622;23.328;2023-08-24T02:43:40;93024.75;;;21.19;74.79
6198;BME280;3132;42.622;23.328;2023-08-24T02:46:08;93029.88;;;21.12;75.39
6198;BME280;3132;42.622;23.328;2023-08-24T02:48:34;93019.47;;;21.07;75.59
6198;BME280;3132;42.622;23.328;2023-08-24T02:51:00;93023.78;;;21.11;75.30
6198;BME280;3132;42.622;23.328;2023-08-24T02:53:26;93021.22;;;21.15;76.59
6198;BME280;3132;42.622;23.328;2023-08-24T02:55:53;93014.69;;;21.12;75.16
6198;BME280;3132;42.622;23.328;2023-08-24T02:58:19;92998.78;;;21.00;75.41
6198;BME280;3132;42.622;23.328;2023-08-24T03:00:44;93005.31;;;21.03;75.02
6198;BME280;3132;42.622;23.328;2023-08-24T03:03:10;93004.88;;;21.01;74.85
6198;BME280;3132;42.622;23.328;2023-08-24T03:05:35;92984.72;;;21.00;74.29
6198;BME280;3132;42.622;23.328;2023-08-24T03:08:01;92991.78;;;21.08;74.45
6198;BME280;3132;42.622;23.328;2023-08-24T03:10:26;93002.06;;;21.09;74.95
6198;BME280;3132;42.622;23.328;2023-08-24T03:12:52;93001.44;;;21.00;74.86
6198;BME280;3132;42.622;23.328;2023-08-24T03:15:17;93001.06;;;21.14;74.35
6198;BME280;3132;42.622;23.328;2023-08-24T03:17:43;93005.97;;;21.12;74.65
6198;BME280;3132;42.622;23.328;2023-08-24T03:20:08;92989.38;;;21.03;75.14
6198;BME280;3132;42.622;23.328;2023-08-24T03:22:36;93004.84;;;21.25;74.49
6198;BME280;3132;42.622;23.328;2023-08-24T03:25:01;93010.06;;;21.21;74.20
6198;BME280;3132;42.622;23.328;2023-08-24T03:27:26;93031.94;;;21.06;75.24
6198;BME280;3132;42.622;23.328;2023-08-24T03:29:53;93036.66;;;20.77;75.94
6198;BME280;3132;42.622;23.328;2023-08-24T03:32:19;93045.63;;;20.72;77.11
6198;BME280;3132;42.622;23.328;2023-08-24T03:34:44;93050.59;;;20.73;77.93
6198;BME280;3132;42.622;23.328;2023-08-24T03:37:10;93050.59;;;20.73;78.46
6198;BME280;3132;42.622;23.328;2023-08-24T03:39:39;93033.78;;;20.69;78.63
6198;BME280;3132;42.622;23.328;2023-08-24T03:42:04;93048.94;;;20.81;78.63
6198;BME280;3132;42.622;23.328;2023-08-24T03:44:30;93047.28;;;20.77;79.79
6198;BME280;3132;42.622;23.328;2023-08-24T03:46:55;93048.06;;;20.89;80.24
6198;BME280;3132;42.622;23.328;2023-08-24T03:49:21;93053.28;;;20.86;79.94
6198;BME280;3132;42.622;23.328;2023-08-24T03:51:46;93053.50;;;20.81;80.60
6198;BME280;3132;42.622;23.328;2023-08-24T03:54:11;93056.16;;;20.81;80.50
6198;BME280;3132;42.622;23.328;2023-08-24T03:56:37;93066.75;;;20.81;80.33
6198;BME280;3132;42.622;23.328;2023-08-24T03:59:02;93065.97;;;20.80;80.44
6198;BME280;3132;42.622;23.328;2023-08-24T04:01:28;93062.00;;;20.86;79.88
6198;BME280;3132;42.622;23.328;2023-08-24T04:03:54;93065.66;;;20.82;81.21
6198;BME280;3132;42.622;23.328;2023-08-24T04:06:19;93071.41;;;20.84;80.63
6198;BME280;3132;42.622;23.328;2023-08-24T04:08:45;93077.19;;;20.86;80.33
6198;BME280;3132;42.622;23.328;2023-08-24T04:11:10;93066.97;;;20.88;80.80
6198;BME280;3132;42.622;23.328;2023-08-24T04:13:35;93067.66;;;20.85;79.42
6198;BME280;3132;42.622;23.328;2023-08-24T04:16:01;93063.91;;;20.86;79.87
6198;BME280;3132;42.622;23.328;2023-08-24T04:18:26;93061.13;;;20.82;79.90
6198;BME280;3132;42.622;23.328;2023-08-24T04:20:52;93053.84;;;20.91;78.96
6198;BME280;3132;42.622;23.328;2023-08-24T04:23:24;93049.41;;;20.95;78.13
6198;BME280;3132;42.622;23.328;2023-08-24T04:25:49;93053.66;;;20.96;78.09
6198;BME280;3132;42.622;23.328;2023-08-24T04:28:15;93043.78;;;20.97;78.65
6198;BME280;3132;42.622;23.328;2023-08-24T04:30:40;93044.41;;;20.94;78.75
6198;BME280;3132;42.622;23.328;2023-08-24T04:33:05;93048.44;;;21.00;79.75
6198;BME280;3132;42.622;23.328;2023-08-24T04:35:34;93039.91;;;21.06;78.95
6198;BME280;3132;42.622;23.328;2023-08-24T04:38:00;93042.91;;;21.05;79.67
6198;BME280;3132;42.622;23.328;2023-08-24T04:40:25;93049.78;;;21.06;80.27
6198;BME280;3132;42.622;23.328;2023-08-24T04:42:51;93059.28;;;21.07;78.78
6198;BME280;3132;42.622;23.328;2023-08-24T04:45:17;93063.16;;;21.33;76.10
6198;BME280;3132;42.622;23.328;2023-08-24T04:47:42;93073.00;;;21.21;77.61
6198;BME280;3132;42.622;23.328;2023-08-24T04:50:08;93078.31;;;21.09;78.11
6198;BME280;3132;42.622;23.328;2023-08-24T04:52:33;93083.63;;;21.21;78.49
6198;BME280;3132;42.622;23.328;2023-08-24T04:55:00;93087.84;;;21.22;78.95
6198;BME280;3132;42.622;23.328;2023-08-24T04:57:25;93088.53;;;21.31;78.58
6198;BME280;3132;42.622;23.328;2023-08-24T04:59:50;93087.59;;;21.39;78.26
6198;BME280;3132;42.622;23.328;2023-08-24T05:02:16;93073.34;;;21.55;77.68
6198;BME280;3132;42.622;23.328;2023-08-24T05:04:41;93067.13;;;21.63;77.45
6198;BME280;3132;42.622;23.328;2023-08-24T05:07:09;93070.31;;;21.81;77.48
6198;BME280;3132;42.622;23.328;2023-08-24T05:09:35;93073.88;;;21.85;78.30
6198;BME280;3132;42.622;23.328;2023-08-24T05:12:00;93068.94;;;21.99;78.35
6198;BME280;3132;42.622;23.328;2023-08-24T05:14:25;93061.94;;;22.06;77.53
6198;BME280;3132;42.622;23.328;2023-08-24T05:16:51;93063.75;;;22.30;75.61
6198;BME280;3132;42.622;23.328;2023-08-24T05:19:16;93065.66;;;22.45;75.58
6198;BME280;3132;42.622;23.328;2023-08-24T05:21:41;93063.69;;;22.42;74.20
6198;BME280;3132;42.622;23.328;2023-08-24T05:24:07;93078.72;;;22.50;75.33
6198;BME280;3132;42.622;23.328;2023-08-24T05:26:32;93056.78;;;22.53;74.16
6198;BME280;3132;42.622;23.328;2023-08-24T05:28:57;93080.66;;;22.65;76.04
6198;BME280;3132;42.622;23.328;2023-08-24T05:31:23;93084.63;;;22.71;76.30
6198;BME280;3132;42.622;23.328;2023-08-24T05:33:48;93090.81;;;22.48;75.97
6198;BME280;3132;42.622;23.328;2023-08-24T05:36:14;93097.91;;;22.56;75.54
6198;BME280;3132;42.622;23.328;2023-08-24T05:38:39;93104.66;;;22.81;74.72
6198;BME280;3132;42.622;23.328;2023-08-24T05:41:10;93106.69;;;22.72;74.44
6198;BME280;3132;42.622;23.328;2023-08-24T05:43:35;93105.78;;;22.80;74.04
6198;BME280;3132;42.622;23.328;2023-08-24T05:46:00;93097.91;;;22.99;73.44
6198;BME280;3132;42.622;23.328;2023-08-24T05:48:28;93093.69;;;22.55;71.48
6198;BME280;3132;42.622;23.328;2023-08-24T05:50:54;93103.31;;;22.59;73.19
6198;BME280;3132;42.622;23.328;2023-08-24T05:53:19;93103.69;;;22.73;73.16
6198;BME280;3132;42.622;23.328;2023-08-24T05:55:45;93105.03;;;23.10;72.28
6198;BME280;3132;42.622;23.328;2023-08-24T05:58:10;93108.72;;;23.21;72.66
6198;BME280;3132;42.622;23.328;2023-08-24T06:00:35;93107.94;;;23.52;71.08
6198;BME280;3132;42.622;23.328;2023-08-24T06:03:01;93120.16;;;24.19;68.47
6198;BME280;3132;42.622;23.328;2023-08-24T06:05:29;93114.34;;;24.51;66.68
6198;BME280;3132;42.622;23.328;2023-08-24T06:07:54;93100.09;;;23.74;68.79
6198;BME280;3132;42.622;23.328;2023-08-24T06:10:20;93102.78;;;24.28;67.91
6198;BME280;3132;42.622;23.328;2023-08-24T06:12:45;93128.47;;;24.90;65.70
6198;BME280;3132;42.622;23.328;2023-08-24T06:15:10;93126.00;;;24.43;67.36
6198;BME280;3132;42.622;23.328;2023-08-24T06:17:38;93102.72;;;24.06;68.85
6198;BME280;3132;42.622;23.328;2023-08-24T06:20:04;93122.28;;;24.48;67.49
6198;BME280;3132;42.622;23.328;2023-08-24T06:22:29;93111.53;;;24.82;66.29
6198;BME280;3132;42.622;23.328;2023-08-24T06:24:54;93134.09;;;24.85;66.32
6198;BME280;3132;42.622;23.328;2023-08-24T06:27:24;93137.13;;;25.06;64.95
6198;BME280;3132;42.622;23.328;2023-08-24T06:29:50;93118.34;;;24.80;65.28
6198;BME280;3132;42.622;23.328;2023-08-24T06:32:15;93127.19;;;24.65;65.08
6198;BME280;3132;42.622;23.328;2023-08-24T06:34:40;93131.53;;;24.54;65.67
6198;BME280;3132;42.622;23.328;2023-08-24T06:37:06;93135.56;;;25.95;62.02
6198;BME280;3132;42.622;23.328;2023-08-24T06:39:31;93131.16;;;25.58;62.27
6198;BME280;3132;42.622;23.328;2023-08-24T06:41:57;93120.91;;;25.86;61.51
6198;BME280;3132;42.622;23.328;2023-08-24T06:44:22;93120.22;;;25.66;62.16
6198;BME280;3132;42.622;23.328;2023-08-24T06:46:47;93127.97;;;24.84;64.30
6198;BME280;3132;42.622;23.328;2023-08-24T06:49:13;93124.00;;;25.62;62.69
6198;BME280;3132;42.622;23.328;2023-08-24T06:51:38;93121.75;;;25.90;62.17
6198;BME280;3132;42.622;23.328;2023-08-24T06:54:04;93094.56;;;25.62;62.48
6198;BME280;3132;42.622;23.328;2023-08-24T06:56:29;93107.88;;;25.84;62.13
6198;BME280;3132;42.622;23.328;2023-08-24T06:58:54;93131.41;;;26.53;60.25
6198;BME280;3132;42.622;23.328;2023-08-24T07:01:20;93124.13;;;26.21;60.59
6198;BME280;3132;42.622;23.328;2023-08-24T07:03:45;93136.09;;;26.30;60.59
6198;BME280;3132;42.622;23.328;2023-08-24T07:06:11;93128.00;;;26.56;58.78
6198;BME280;3132;42.622;23.328;2023-08-24T07:08:37;93130.75;;;26.30;60.11
6198;BME280;3132;42.622;23.328;2023-08-24T07:11:04;93123.22;;;26.69;59.38
6198;BME280;3132;42.622;23.328;2023-08-24T07:13:29;93125.78;;;27.32;56.51
6198;BME280;3132;42.622;23.328;2023-08-24T07:15:55;93136.63;;;27.42;56.05
6198;BME280;3132;42.622;23.328;2023-08-24T07:18:21;93132.72;;;27.80;53.65
6198;BME280;3132;42.622;23.328;2023-08-24T07:20:47;93127.81;;;28.50;52.44
6198;BME280;3132;42.622;23.328;2023-08-24T07:23:12;93125.31;;;27.66;53.34
6198;BME280;3132;42.622;23.328;2023-08-24T07:25:37;93121.31;;;27.06;53.40
6198;BME280;3132;42.622;23.328;2023-08-24T07:28:03;93122.84;;;26.70;56.16
6198;BME280;3132;42.622;23.328;2023-08-24T07:30:31;93116.75;;;26.73;56.18
6198;BME280;3132;42.622;23.328;2023-08-24T07:32:56;93125.22;;;26.79;57.37
6198;BME280;3132;42.622;23.328;2023-08-24T07:35:22;93120.34;;;26.88;56.33
6198;BME280;3132;42.622;23.328;2023-08-24T07:37:50;93119.69;;;27.82;53.14
6198;BME280;3132;42.622;23.328;2023-08-24T07:40:15;93124.09;;;28.04;52.66
6198;BME280;3132;42.622;23.328;2023-08-24T07:42:48;93120.16;;;27.91;53.14
6198;BME280;3132;42.622;23.328;2023-08-24T07:45:16;93124.09;;;27.57;54.30
6198;BME280;3132;42.622;23.328;2023-08-24T07:47:41;93117.72;;;26.92;57.01
6198;BME280;3132;42.622;23.328;2023-08-24T07:50:08;93120.88;;;27.37;55.43
6198;BME280;3132;42.622;23.328;2023-08-24T07:52:34;93126.34;;;27.11;56.71
6198;BME280;3132;42.622;23.328;2023-08-24T07:54:59;93084.81;;;26.95;56.23
6198;BME280;3132;42.622;23.328;2023-08-24T07:57:28;93125.59;;;27.51;55.57
6198;BME280;3132;42.622;23.328;2023-08-24T07:59:53;93118.34;;;27.55;55.25
6198;BME280;3132;42.622;23.328;2023-08-24T08:02:19;93119.13;;;27.59;54.50
6198;BME280;3132;42.622;23.328;2023-08-24T08:04:44;93124.41;;;27.48;53.99
6198;BME280;3132;42.622;23.328;2023-08-24T08:07:10;93132.88;;;27.54;54.06
6198;BME280;3132;42.622;23.328;2023-08-24T08:09:38;93123.72;;;27.55;55.27
6198;BME280;3132;42.622;23.328;2023-08-24T08:12:04;93135.31;;;27.69;53.50
6198;BME280;3132;42.622;23.328;2023-08-24T08:14:30;93119.31;;;27.83;54.03
6198;BME280;3132;42.622;23.328;2023-08-24T08:16:58;93121.03;;;27.55;55.21
6198;BME280;3132;42.622;23.328;2023-08-24T08:19:23;93126.38;;;27.15;55.88
6198;BME280;3132;42.622;23.328;2023-08-24T08:21:52;93133.44;;;27.77;54.22
6198;BME280;3132;42.622;23.328;2023-08-24T08:24:17;93130.84;;;27.84;54.38
6198;BME280;3132;42.622;23.328;2023-08-24T08:26:42;93130.38;;;27.75;53.87
6198;BME280;3132;42.622;23.328;2023-08-24T08:29:08;93127.22;;;28.13;52.08
6198;BME280;3132;42.622;23.328;2023-08-24T08:31:33;93134.00;;;27.93;53.55
6198;BME280;3132;42.622;23.328;2023-08-24T08:33:58;93126.59;;;28.37;51.44
6198;BME280;3132;42.622;23.328;2023-08-24T08:36:24;93131.13;;;28.26;52.18
6198;BME280;3132;42.622;23.328;2023-08-24T08:38:49;93127.28;;;28.27;50.17
6198;BME280;3132;42.622;23.328;2023-08-24T08:41:15;93121.53;;;28.28;50.04
6198;BME280;3132;42.622;23.328;2023-08-24T08:43:42;93121.69;;;28.50;50.59
6198;BME280;3132;42.622;23.328;2023-08-24T08:46:07;93126.44;;;28.88;48.14
6198;BME280;3132;42.622;23.328;2023-08-24T08:48:33;93102.13;;;28.53;49.79
6198;BME280;3132;42.622;23.328;2023-08-24T08:51:00;93110.63;;;28.65;49.49
6198;BME280;3132;42.622;23.328;2023-08-24T08:53:27;93112.22;;;28.80;48.17
6198;BME280;3132;42.622;23.328;2023-08-24T08:55:54;93118.44;;;29.05;47.46
6198;BME280;3132;42.622;23.328;2023-08-24T08:58:20;93108.31;;;28.60;48.69
6198;BME280;3132;42.622;23.328;2023-08-24T09:00:47;93103.38;;;28.76;47.99
6198;BME280;3132;42.622;23.328;2023-08-24T09:03:15;93104.50;;;28.75;47.24
6198;BME280;3132;42.622;23.328;2023-08-24T09:05:42;93096.09;;;28.80;47.56
6198;BME280;3132;42.622;23.328;2023-08-24T09:08:09;93098.44;;;28.99;46.89
6198;BME280;3132;42.622;23.328;2023-08-24T09:10:34;93089.22;;;28.93;47.33
6198;BME280;3132;42.622;23.328;2023-08-24T09:12:59;93095.81;;;29.20;46.93
6198;BME280;3132;42.622;23.328;2023-08-24T09:15:26;93093.16;;;29.48;45.45
6198;BME280;3132;42.622;23.328;2023-08-24T09:17:53;93080.06;;;29.57;44.19
6198;BME280;3132;42.622;23.328;2023-08-24T09:20:20;93084.72;;;29.46;44.17
6198;BME280;3132;42.622;23.328;2023-08-24T09:22:45;93085.09;;;29.66;44.44
6198;BME280;3132;42.622;23.328;2023-08-24T09:25:11;93078.56;;;29.67;45.14
6198;BME280;3132;42.622;23.328;2023-08-24T09:27:36;93077.00;;;29.31;45.06
6198;BME280;3132;42.622;23.328;2023-08-24T09:30:02;93071.63;;;29.80;44.65
6198;BME280;3132;42.622;23.328;2023-08-24T09:32:29;93065.44;;;29.94;42.87
6198;BME280;3132;42.622;23.328;2023-08-24T09:34:55;93075.47;;;29.86;42.35
6198;BME280;3132;42.622;23.328;2023-08-24T09:37:20;93063.94;;;29.93;43.40
6198;BME280;3132;42.622;23.328;2023-08-24T09:39:46;93064.31;;;29.88;42.97
6198;BME280;3132;42.622;23.328;2023-08-24T09:42:13;93054.31;;;29.39;44.11
6198;BME280;3132;42.622;23.328;2023-08-24T09:44:44;93061.22;;;29.57;43.39
6198;BME280;3132;42.622;23.328;2023-08-24T09:47:12;93045.84;;;29.90;43.79
6198;BME280;3132;42.622;23.328;2023-08-24T09:49:37;93051.66;;;29.35;43.37
6198;BME280;3132;42.622;23.328;2023-08-24T09:52:06;93055.47;;;29.27;42.93
6198;BME280;3132;42.622;23.328;2023-08-24T09:54:36;93042.78;;;29.81;42.69
6198;BME280;3132;42.622;23.328;2023-08-24T09:57:02;93040.03;;;30.23;42.29
6198;BME280;3132;42.622;23.328;2023-08-24T09:59:31;93047.63;;;30.49;41.58
6198;BME280;3132;42.622;23.328;2023-08-24T10:01:59;93046.31;;;30.74;40.61
6198;BME280;3132;42.622;23.328;2023-08-24T10:04:30;93047.91;;;30.75;40.46
6198;BME280;3132;42.622;23.328;2023-08-24T10:07:20;93039.81;;;30.72;39.28
6198;BME280;3132;42.622;23.328;2023-08-24T10:10:18;93042.47;;;30.82;39.99
6198;BME280;3132;42.622;23.328;2023-08-24T10:12:49;93040.59;;;30.69;40.37
6198;BME280;3132;42.622;23.328;2023-08-24T10:15:17;93040.28;;;30.53;39.62
6198;BME280;3132;42.622;23.328;2023-08-24T10:17:44;93010.47;;;30.88;37.53
6198;BME280;3132;42.622;23.328;2023-08-24T10:20:10;93029.69;;;30.97;38.11
6198;BME280;3132;42.622;23.328;2023-08-24T10:22:37;93028.78;;;31.17;36.92
6198;BME280;3132;42.622;23.328;2023-08-24T10:25:06;93030.78;;;31.58;36.62
6198;BME280;3132;42.622;23.328;2023-08-24T10:27:32;93036.97;;;31.58;36.80
6198;BME280;3132;42.622;23.328;2023-08-24T10:29:57;93035.97;;;31.82;36.95
6198;BME280;3132;42.622;23.328;2023-08-24T10:32:24;93034.63;;;32.01;36.44
6198;BME280;3132;42.622;23.328;2023-08-24T10:34:50;93026.47;;;31.67;36.18
6198;BME280;3132;42.622;23.328;2023-08-24T10:37:16;93016.84;;;31.11;36.81
6198;BME280;3132;42.622;23.328;2023-08-24T10:39:46;93018.28;;;31.74;36.36
6198;BME280;3132;42.622;23.328;2023-08-24T10:42:14;93026.69;;;32.57;35.09
6198;BME280;3132;42.622;23.328;2023-08-24T10:44:44;93017.50;;;32.14;36.71
6198;BME280;3132;42.622;23.328;2023-08-24T10:47:21;93012.78;;;31.85;37.58
6198;BME280;3132;42.622;23.328;2023-08-24T10:52:35;93013.44;;;31.99;37.27
6198;BME280;3132;42.622;23.328;2023-08-24T10:55:20;93022.97;;;31.70;37.05
6198;BME280;3132;42.622;23.328;2023-08-24T10:58:00;93018.41;;;31.60;36.66
6198;BME280;3132;42.622;23.328;2023-08-24T11:00:29;93012.38;;;31.46;37.39
6198;BME280;3132;42.622;23.328;2023-08-24T11:02:55;93004.47;;;31.65;36.15
6198;BME280;3132;42.622;23.328;2023-08-24T11:07:58;92995.69;;;31.06;36.31
6198;BME280;3132;42.622;23.328;2023-08-24T11:10:26;92987.25;;;31.52;35.77
6198;BME280;3132;42.622;23.328;2023-08-24T11:13:11;92998.22;;;31.75;35.26
6198;BME280;3132;42.622;23.328;2023-08-24T11:15:47;92996.28;;;31.76;36.26
6198;BME280;3132;42.622;23.328;2023-08-24T11:23:10;92984.03;;;30.58;43.30
6198;BME280;3132;42.622;23.328;2023-08-24T11:25:36;92986.50;;;30.97;42.92
6198;BME280;3132;42.622;23.328;2023-08-24T11:28:05;92984.09;;;31.13;42.35
6198;BME280;3132;42.622;23.328;2023-08-24T11:30:34;92982.66;;;30.98;41.45
6198;BME280;3132;42.622;23.328;2023-08-24T11:33:01;92997.13;;;30.60;43.60
6198;BME280;3132;42.622;23.328;2023-08-24T11:35:27;93000.75;;;30.29;44.62
6198;BME280;3132;42.622;23.328;2023-08-24T11:37:53;92996.69;;;30.65;42.92
6198;BME280;3132;42.622;23.328;2023-08-24T11:40:19;92984.91;;;30.34;43.85
6198;BME280;3132;42.622;23.328;2023-08-24T11:42:58;93001.13;;;30.24;44.09
6198;BME280;3132;42.622;23.328;2023-08-24T11:45:24;92992.75;;;29.94;44.26
6198;BME280;3132;42.622;23.328;2023-08-24T11:47:54;93008.13;;;30.00;45.46
6198;BME280;3132;42.622;23.328;2023-08-24T11:50:20;93001.63;;;29.77;45.21
6198;BME280;3132;42.622;23.328;2023-08-24T11:52:45;93005.50;;;29.40;46.13
6198;BME280;3132;42.622;23.328;2023-08-24T11:55:11;92997.81;;;29.46;45.07
6198;BME280;3132;42.622;23.328;2023-08-24T11:57:37;92987.44;;;29.09;44.66
6198;BME280;3132;42.622;23.328;2023-08-24T12:00:04;92993.59;;;29.10;43.94
6198;BME280;3132;42.622;23.328;2023-08-24T12:02:31;92990.50;;;29.01;43.88
6198;BME280;3132;42.622;23.328;2023-08-24T12:04:57;92985.91;;;29.01;44.36
6198;BME280;3132;42.622;23.328;2023-08-24T12:07:23;92975.50;;;28.89;44.14
6198;BME280;3132;42.622;23.328;2023-08-24T12:09:49;92969.75;;;29.01;43.99
6198;BME280;3132;42.622;23.328;2023-08-24T12:12:18;92969.34;;;28.92;44.63
6198;BME280;3132;42.622;23.328;2023-08-24T12:14:49;92967.81;;;28.74;45.58
6198;BME280;3132;42.622;23.328;2023-08-24T12:17:16;92946.31;;;28.67;46.03
6198;BME280;3132;42.622;23.328;2023-08-24T12:20:01;92952.06;;;28.65;46.72
6198;BME280;3132;42.622;23.328;2023-08-24T12:22:31;92956.31;;;28.73;46.41
6198;BME280;3132;42.622;23.328;2023-08-24T12:24:57;92959.00;;;28.87;46.00
6198;BME280;3132;42.622;23.328;2023-08-24T12:27:25;92962.44;;;28.88;45.65
6198;BME280;3132;42.622;23.328;2023-08-24T12:29:51;92973.19;;;28.84;45.52
6198;BME280;3132;42.622;23.328;2023-08-24T12:32:18;92975.53;;;29.38;43.99
6198;BME280;3132;42.622;23.328;2023-08-24T12:34:50;92978.22;;;29.17;45.38
6198;BME280;3132;42.622;23.328;2023-08-24T12:37:20;92985.53;;;29.20;45.86
6198;BME280;3132;42.622;23.328;2023-08-24T12:39:45;92972.47;;;29.19;45.59
6198;BME280;3132;42.622;23.328;2023-08-24T12:42:11;92973.56;;;29.53;44.91
6198;BME280;3132;42.622;23.328;2023-08-24T12:44:36;92968.19;;;29.60;45.38
6198;BME280;3132;42.622;23.328;2023-08-24T12:47:02;92964.72;;;29.81;44.02
6198;BME280;3132;42.622;23.328;2023-08-24T12:49:28;92961.97;;;29.88;43.63
6198;BME280;3132;42.622;23.328;2023-08-24T12:51:53;92956.25;;;29.79;43.96
6198;BME280;3132;42.622;23.328;2023-08-24T12:54:19;92968.53;;;29.76;45.35
6198;BME280;3132;42.622;23.328;2023-08-24T12:56:44;92978.56;;;29.76;44.75
6198;BME280;3132;42.622;23.328;2023-08-24T12:59:09;92978.13;;;29.95;43.54
6198;BME280;3132;42.622;23.328;2023-08-24T13:01:35;92987.75;;;29.96;44.00
6198;BME280;3132;42.622;23.328;2023-08-24T13:04:00;92991.59;;;29.88;44.51
6198;BME280;3132;42.622;23.328;2023-08-24T13:06:26;92978.19;;;29.73;43.63
6198;BME280;3132;42.622;23.328;2023-08-24T13:08:54;92991.28;;;29.64;44.35
6198;BME280;3132;42.622;23.328;2023-08-24T13:11:21;92992.41;;;29.70;46.32
6198;BME280;3132;42.622;23.328;2023-08-24T13:13:46;92993.59;;;29.69;46.97
6198;BME280;3132;42.622;23.328;2023-08-24T13:16:12;92993.19;;;29.67;46.21
6198;BME280;3132;42.622;23.328;2023-08-24T13:18:37;92993.56;;;29.77;46.11
6198;BME280;3132;42.622;23.328;2023-08-24T13:21:02;92995.47;;;29.87;45.51
6198;BME280;3132;42.622;23.328;2023-08-24T13:23:28;92987.78;;;29.82;46.06